»·PEaware :: N172SL KLAX-KSBA

N172SL :: KLAX-KSBA

FLIGHT INFORMATION

Flight Status: Arrived
Operator: Privately registered:
United States
More flights under this callsign
Pilot: Steve L. (17268)
Aircraft: CESSNA 172 SKYHAWK
(C172)
More flights by this aircraft type
Origin: KLAX Los Angeles Intl
United States
Destination: KSBA Santa Barbara Mun
United States
More flights between these airports :: More routes between these airports
Route: +
File this flight plan on PilotEdge
Remarks: vff
Altitude:
(Current/Filed)
6,500ft
Speed:
(Current/Filed)
0kts
Departed: 03-Jan-18 03:36 PM
Arrived: 03-Jan-18 04:22 PM
Distance/Time
Traveled:
77nm/0:46
Distance/Time
To Go:
Arrived

Flight Plot

Page will automatically refresh every two minutes.

Flight plan parsing failed; only flown route is shown


Map Options




Map Legend


Flown Route
Filed Route
Departure Airport
Arrival Airport
Navaid (VOR, NDB)
Fix

Horizontal Profiles

Position Reports

Time Latitude Longitude Heading Altitude Ground
Speed
03-Jan-18 15:30 33.934137 -118.395574 175 106ft 0kts
03-Jan-18 15:31 33.934137 -118.395574 175 106ft 0kts
03-Jan-18 15:32 33.934137 -118.395574 175 106ft 0kts
03-Jan-18 15:33 33.934137 -118.395574 175 106ft 0kts
03-Jan-18 15:34 33.934187 -118.395393 69 106ft 0kts
03-Jan-18 15:35 33.934187 -118.395393 69 106ft 0kts
03-Jan-18 15:37 33.934137 -118.395574 175 106ft 0kts
03-Jan-18 15:38 33.934176 -118.395284 69 106ft 0kts
03-Jan-18 15:39 33.935111 -118.393746 15 103ft 11kts
03-Jan-18 15:40 33.935330 -118.393713 359 103ft 0kts
03-Jan-18 15:41 33.935330 -118.393713 359 103ft 0kts
03-Jan-18 15:42 33.935699 -118.398720 265 122ft 74kts
03-Jan-18 15:43 33.934315 -118.423353 266 1109ft 83kts
03-Jan-18 15:44 33.932223 -118.450950 272 2191ft 85kts
03-Jan-18 15:45 33.931309 -118.480997 261 2927ft 112kts
03-Jan-18 15:46 33.930309 -118.520220 271 2837ft 120kts
03-Jan-18 15:47 33.928948 -118.559613 269 2809ft 117kts
03-Jan-18 15:48 33.928107 -118.583707 266 2845ft 115kts
03-Jan-18 15:49 33.926867 -118.609480 268 2842ft 116kts
03-Jan-18 15:50 33.931991 -118.634662 316 2798ft 118kts
03-Jan-18 15:51 33.943775 -118.647945 317 2761ft 118kts
03-Jan-18 15:52 33.958979 -118.666296 313 3324ft 104kts
03-Jan-18 15:53 33.973751 -118.686829 309 3910ft 103kts
03-Jan-18 15:54 33.996782 -118.706721 330 4327ft 114kts
03-Jan-18 15:55 34.024577 -118.726448 329 4361ft 116kts
03-Jan-18 15:56 34.051245 -118.748229 321 4390ft 116kts
03-Jan-18 15:57 34.067269 -118.782416 293 4318ft 117kts
03-Jan-18 15:58 34.082401 -118.818601 293 4415ft 125kts
03-Jan-18 15:59 34.096392 -118.857452 292 4392ft 126kts
03-Jan-18 16:00 34.109471 -118.895458 292 4417ft 125kts
03-Jan-18 16:01 34.122759 -118.934458 292 4417ft 125kts
03-Jan-18 16:02 34.136064 -118.973641 292 4417ft 126kts
03-Jan-18 16:03 34.149335 -119.012796 292 4417ft 126kts
03-Jan-18 16:04 34.162576 -119.051910 292 4417ft 126kts
03-Jan-18 16:05 34.175806 -119.091040 292 4417ft 126kts
03-Jan-18 16:06 34.188898 -119.129819 292 4417ft 126kts
03-Jan-18 16:07 34.201919 -119.168423 292 4417ft 126kts
03-Jan-18 16:08 34.215059 -119.207437 292 4417ft 126kts
03-Jan-18 16:09 34.228269 -119.246714 292 4417ft 126kts
03-Jan-18 16:10 34.241412 -119.285840 292 4417ft 126kts
03-Jan-18 16:11 34.254541 -119.325106 292 4417ft 126kts
03-Jan-18 16:12 34.267700 -119.364402 292 4417ft 126kts
03-Jan-18 16:13 34.280835 -119.403649 292 4417ft 125kts
03-Jan-18 16:14 34.293931 -119.442828 292 4413ft 126kts
03-Jan-18 16:15 34.307865 -119.482521 299 3994ft 131kts
03-Jan-18 16:16 34.319800 -119.519470 291 3268ft 109kts
03-Jan-18 16:17 34.330602 -119.552539 292 2765ft 104kts
03-Jan-18 16:18 34.341374 -119.584983 292 2264ft 104kts
03-Jan-18 16:19 34.352642 -119.618872 292 1767ft 114kts
03-Jan-18 16:20 34.364078 -119.653324 291 1410ft 113kts
03-Jan-18 16:21 34.376071 -119.689581 291 1408ft 117kts
03-Jan-18 16:22 34.391596 -119.723830 320 1370ft 115kts
03-Jan-18 16:23 34.412032 -119.753321 305 1241ft 113kts
03-Jan-18 16:24 34.432349 -119.781558 317 1214ft 111kts
03-Jan-18 16:25 34.449394 -119.809651 269 839ft 104kts
03-Jan-18 16:26 34.446384 -119.835265 229 544ft 68kts
03-Jan-18 16:27 34.430401 -119.840166 164 49ft 58kts
03-Jan-18 16:28 34.426703 -119.838538 90 11ft 0kts
03-Jan-18 16:29 34.426830 -119.838387 355 11ft 9kts
03-Jan-18 16:30 34.430088 -119.839377 349 14ft 10kts
03-Jan-18 16:31 34.429643 -119.842785 245 14ft 13kts
03-Jan-18 16:32 34.429635 -119.843732 330 14ft 0kts

Navigation Log

Ident Type
Flight plan parsing failed, navigation log unavailable